createdAt,value
2022-12-05T00:01:25.404Z,526.45
2022-12-05T00:03:54.777Z,525.47
2022-12-05T00:06:22.581Z,523.00
2022-12-05T00:08:49.528Z,523.28
2022-12-05T00:11:19.345Z,524.08
2022-12-05T00:13:47.308Z,529.42
2022-12-05T00:16:19.930Z,532.65
2022-12-05T00:18:47.498Z,522.58
2022-12-05T00:21:21.287Z,524.00
2022-12-05T00:23:48.694Z,523.03
2022-12-05T00:26:15.747Z,529.93
2022-12-05T00:28:43.015Z,527.22
2022-12-05T00:31:13.013Z,531.40
2022-12-05T00:33:40.262Z,533.65
2022-12-05T00:36:28.172Z,523.95
2022-12-05T00:38:55.640Z,527.05
2022-12-05T00:41:25.238Z,522.88
2022-12-05T00:43:52.922Z,527.70
2022-12-05T00:46:25.266Z,528.28
2022-12-05T00:48:56.603Z,528.33
2022-12-05T00:51:29.045Z,526.85
2022-12-05T00:53:58.792Z,525.47
2022-12-05T00:56:26.990Z,521.23
2022-12-05T00:58:55.342Z,523.63
2022-12-05T01:01:25.140Z,526.43
2022-12-05T01:03:54.564Z,506.33
2022-12-05T01:06:22.796Z,513.33
2022-12-05T01:08:49.636Z,512.78
2022-12-05T01:11:18.789Z,514.83
2022-12-05T01:13:46.310Z,513.65
2022-12-05T01:16:22.923Z,517.08
2022-12-05T01:18:50.086Z,516.20
2022-12-05T01:21:17.034Z,515.50
2022-12-05T01:23:43.634Z,509.70
2022-12-05T01:26:13.777Z,512.08
2022-12-05T01:28:41.496Z,507.83
2022-12-05T01:31:29.751Z,515.13
2022-12-05T01:33:58.870Z,510.40
2022-12-05T01:36:26.657Z,513.03
2022-12-05T01:38:54.432Z,513.83
2022-12-05T01:41:29.906Z,514.22
2022-12-05T01:44:04.561Z,516.95
2022-12-05T01:46:45.674Z,517.05
2022-12-05T01:49:17.319Z,516.13
2022-12-05T01:51:53.898Z,515.45
2022-12-05T01:54:22.883Z,512.78
2022-12-05T01:56:54.260Z,523.17
2022-12-05T01:59:23.552Z,515.83
2022-12-05T02:01:50.860Z,523.30
2022-12-05T02:04:17.866Z,528.55
2022-12-05T02:06:44.473Z,533.50
2022-12-05T02:09:11.549Z,526.00
2022-12-05T02:11:57.041Z,524.85
2022-12-05T02:14:36.618Z,528.80
2022-12-05T02:17:17.764Z,525.15
2022-12-05T02:19:55.148Z,521.75
2022-12-05T02:22:49.733Z,528.58
2022-12-05T02:25:19.389Z,529.20
2022-12-05T02:28:04.352Z,524.97
2022-12-05T02:31:00.835Z,528.17
2022-12-05T02:33:53.787Z,522.63
2022-12-05T02:36:25.734Z,526.72
2022-12-05T02:38:58.778Z,524.97
2022-12-05T02:41:34.557Z,527.03
2022-12-05T02:44:13.465Z,517.42
2022-12-05T02:46:46.770Z,521.75
2022-12-05T02:49:19.220Z,528.20
2022-12-05T02:51:49.360Z,524.90
2022-12-05T02:54:21.235Z,522.10
2022-12-05T02:56:49.504Z,527.72
2022-12-05T02:59:21.522Z,528.43
2022-12-05T03:01:50.208Z,523.80
2022-12-05T03:04:20.086Z,517.97
2022-12-05T03:07:00.731Z,518.95
2022-12-05T03:09:34.110Z,513.83
2022-12-05T03:12:12.776Z,517.30
2022-12-05T03:14:48.884Z,512.92
2022-12-05T03:17:19.877Z,512.80
2022-12-05T03:20:08.103Z,511.30
2022-12-05T03:22:44.810Z,519.97
2022-12-05T03:25:13.793Z,518.38
2022-12-05T03:27:50.651Z,521.90
2022-12-05T03:30:20.123Z,526.45
2022-12-05T03:32:52.538Z,524.50
2022-12-05T03:35:42.934Z,522.08
2022-12-05T03:38:14.217Z,521.45
2022-12-05T03:40:59.472Z,525.83
2022-12-05T03:43:35.425Z,525.95
2022-12-05T03:46:11.686Z,526.42
2022-12-05T03:49:04.136Z,518.00
2022-12-05T03:51:53.928Z,526.80
2022-12-05T03:54:35.376Z,525.03
2022-12-05T03:57:10.910Z,529.53
2022-12-05T03:59:46.786Z,532.65
2022-12-05T04:02:27.231Z,538.78
2022-12-05T04:04:59.514Z,524.58
2022-12-05T04:07:28.903Z,528.53
2022-12-05T04:10:04.565Z,524.50
2022-12-05T04:12:34.886Z,528.37
2022-12-05T04:15:14.080Z,524.72
2022-12-05T04:17:58.081Z,519.72
2022-12-05T04:20:47.956Z,531.78
2022-12-05T04:23:15.006Z,512.83
2022-12-05T04:26:12.833Z,524.22
2022-12-05T04:28:51.547Z,515.42
2022-12-05T04:31:25.845Z,520.35
2022-12-05T04:33:56.971Z,519.33
2022-12-05T04:36:29.362Z,516.38
2022-12-05T04:39:17.896Z,510.80
2022-12-05T04:41:50.435Z,520.08
2022-12-05T04:44:21.866Z,512.30
2022-12-05T04:46:52.136Z,510.50
2022-12-05T04:49:25.074Z,517.25
2022-12-05T04:51:55.502Z,507.27
2022-12-05T04:54:31.206Z,511.05
2022-12-05T04:57:08.009Z,511.52
2022-12-05T04:59:35.138Z,504.25
2022-12-05T05:02:09.534Z,507.52
2022-12-05T05:04:47.165Z,499.27
2022-12-05T05:07:14.819Z,498.38
2022-12-05T05:09:42.099Z,507.38
2022-12-05T05:12:08.752Z,503.08
2022-12-05T05:14:35.744Z,499.85
2022-12-05T05:17:02.380Z,504.38
2022-12-05T05:19:29.505Z,506.92
2022-12-05T05:21:56.582Z,507.05
2022-12-05T05:24:23.654Z,506.35
2022-12-05T05:26:56.926Z,504.60
2022-12-05T05:29:24.245Z,502.00
2022-12-05T05:31:51.063Z,509.10
2022-12-05T05:34:17.764Z,502.08
2022-12-05T05:36:44.400Z,500.02
2022-12-05T05:39:15.094Z,499.00
2022-12-05T05:41:42.931Z,503.20
2022-12-05T05:44:09.715Z,505.33
2022-12-05T05:46:36.638Z,506.58
2022-12-05T05:49:03.956Z,504.58
2022-12-05T05:51:30.853Z,507.17
2022-12-05T05:53:58.638Z,505.55
2022-12-05T05:56:25.533Z,502.33
2022-12-05T05:59:10.074Z,503.02
2022-12-05T06:01:36.769Z,508.55
2022-12-05T06:04:03.668Z,496.73
2022-12-05T06:06:30.529Z,505.45
2022-12-05T06:08:57.165Z,489.02
2022-12-05T06:11:27.000Z,495.55
2022-12-05T06:14:01.019Z,497.38
2022-12-05T06:16:28.693Z,494.38
2022-12-05T06:18:55.312Z,490.52
2022-12-05T06:21:22.830Z,491.92
2022-12-05T06:23:49.442Z,491.93
2022-12-05T06:26:19.199Z,502.58
2022-12-05T06:28:46.051Z,497.88
2022-12-05T06:31:19.440Z,492.42
2022-12-05T06:33:46.472Z,487.65
2022-12-05T06:36:18.883Z,489.08
2022-12-05T06:38:45.554Z,482.27
2022-12-05T06:41:15.809Z,486.98
2022-12-05T06:43:43.239Z,481.42
2022-12-05T06:46:11.950Z,484.98
2022-12-05T06:48:39.089Z,485.67
2022-12-05T06:51:06.947Z,491.73
2022-12-05T06:53:33.575Z,489.75
2022-12-05T06:56:05.375Z,486.00
2022-12-05T06:58:32.036Z,484.67
2022-12-05T07:01:17.394Z,480.40
2022-12-05T07:03:44.308Z,481.42
2022-12-05T07:06:11.345Z,467.67
2022-12-05T07:08:38.322Z,465.88
2022-12-05T07:11:05.106Z,477.58
2022-12-05T07:13:31.718Z,480.20
2022-12-05T07:16:00.813Z,472.88
2022-12-05T07:18:27.803Z,482.20
2022-12-05T07:21:12.210Z,475.20
2022-12-05T07:23:40.268Z,469.98
2022-12-05T07:26:08.444Z,475.02
2022-12-05T07:28:35.347Z,476.23
2022-12-05T07:31:10.351Z,470.52
2022-12-05T07:33:37.854Z,472.27
2022-12-05T07:36:07.302Z,474.40
2022-12-05T07:38:34.153Z,479.13
2022-12-05T07:41:08.956Z,484.27
2022-12-05T07:43:38.351Z,477.73
2022-12-05T07:46:06.732Z,480.88
2022-12-05T07:48:33.770Z,477.60
2022-12-05T07:51:02.324Z,476.67
2022-12-05T07:53:30.082Z,473.33
2022-12-05T07:56:03.150Z,470.17
2022-12-05T07:58:30.524Z,476.02
2022-12-05T08:00:58.848Z,478.63
2022-12-05T08:03:25.529Z,484.70
2022-12-05T08:05:52.053Z,480.10
2022-12-05T08:08:18.851Z,479.48
2022-12-05T08:10:45.457Z,477.70
2022-12-05T08:13:12.102Z,475.80
2022-12-05T08:15:38.631Z,481.70
2022-12-05T08:18:05.318Z,482.00
2022-12-05T08:20:31.867Z,485.67
2022-12-05T08:22:58.439Z,496.25
2022-12-05T08:25:25.305Z,486.60
2022-12-05T08:27:52.082Z,504.98
2022-12-05T08:30:18.759Z,491.40
2022-12-05T08:32:45.373Z,496.63
2022-12-05T08:35:11.917Z,495.77
2022-12-05T08:37:38.536Z,490.60
2022-12-05T08:40:05.733Z,485.00
2022-12-05T08:42:32.465Z,489.38
2022-12-05T08:45:02.043Z,483.83
2022-12-05T08:47:30.382Z,476.25
2022-12-05T08:49:59.173Z,480.55
2022-12-05T08:52:26.077Z,482.27
2022-12-05T08:54:52.644Z,483.08
2022-12-05T08:57:19.291Z,480.70
2022-12-05T08:59:46.126Z,472.85
2022-12-05T09:02:13.330Z,475.55
2022-12-05T09:04:50.869Z,474.65
2022-12-05T09:07:20.482Z,470.40
2022-12-05T09:09:47.107Z,469.63
2022-12-05T09:12:14.891Z,464.67
2022-12-05T09:14:41.517Z,468.23
2022-12-05T09:17:08.407Z,467.75
2022-12-05T09:19:35.016Z,473.90
2022-12-05T09:22:01.789Z,474.02
2022-12-05T09:27:24.211Z,471.65
2022-12-05T09:29:51.451Z,478.98
2022-12-05T09:32:18.093Z,463.23
2022-12-05T09:34:44.756Z,454.10
2022-12-05T09:37:37.596Z,452.30
2022-12-05T09:39:57.984Z,450.25
2022-12-05T09:42:38.157Z,455.58
2022-12-05T09:45:18.224Z,463.90
2022-12-05T09:47:59.424Z,460.95
2022-12-05T09:51:00.894Z,463.07
2022-12-05T09:56:33.557Z,455.80
2022-12-05T09:59:05.481Z,455.88
2022-12-05T10:02:13.128Z,453.57
2022-12-05T10:05:18.471Z,455.42
2022-12-05T10:07:50.844Z,457.27
2022-12-05T10:10:36.178Z,466.63
2022-12-05T10:13:48.281Z,460.85
2022-12-05T10:16:27.222Z,469.27
2022-12-05T10:19:00.915Z,473.20
2022-12-05T10:21:40.573Z,469.05
2022-12-05T11:46:11.400Z,470.95
2022-12-05T11:49:23.209Z,467.15
2022-12-05T11:52:40.226Z,470.00
2022-12-05T11:55:22.439Z,473.33
2022-12-05T11:58:14.543Z,480.85
2022-12-05T12:00:52.165Z,470.83
2022-12-05T12:03:49.298Z,476.38
2022-12-05T12:06:46.883Z,480.70
2022-12-05T12:09:47.505Z,483.05
2022-12-05T12:12:31.300Z,491.30
2022-12-05T12:15:12.964Z,486.38
2022-12-05T12:18:00.536Z,475.95
2022-12-05T12:20:35.012Z,477.17
2022-12-05T12:23:11.977Z,466.35
2022-12-05T12:26:09.543Z,471.58
2022-12-05T12:28:46.035Z,480.75
2022-12-05T12:31:12.557Z,468.20
2022-12-05T12:33:50.628Z,462.85
2022-12-05T12:36:31.725Z,456.95
2022-12-05T12:39:13.532Z,457.38
2022-12-05T12:41:54.259Z,459.42
2022-12-05T12:44:29.581Z,458.25
2022-12-05T12:47:01.240Z,463.30
2022-12-05T12:49:52.421Z,455.25
2022-12-05T12:52:24.441Z,461.30
2022-12-05T12:55:08.803Z,454.67
2022-12-05T12:57:53.959Z,462.75
2022-12-05T13:01:08.507Z,458.02
2022-12-05T13:03:39.751Z,465.95
2022-12-05T13:06:18.169Z,460.03
2022-12-05T13:08:45.100Z,459.08
2022-12-05T13:11:15.551Z,461.23
2022-12-05T13:13:53.113Z,449.52
2022-12-05T13:16:26.233Z,453.30
2022-12-05T13:18:55.517Z,468.17
2022-12-05T13:21:23.122Z,474.43
2022-12-05T13:23:55.018Z,459.77
2022-12-05T13:26:23.796Z,455.27
2022-12-05T13:29:01.135Z,452.93
2022-12-05T13:31:42.881Z,459.08
2022-12-05T13:34:31.073Z,457.67
2022-12-05T13:37:17.240Z,463.70
2022-12-05T13:40:11.519Z,449.77
2022-12-05T13:42:38.510Z,455.37
2022-12-05T13:45:05.004Z,448.98
2022-12-05T13:48:00.593Z,460.20
2022-12-05T13:50:33.222Z,454.25
2022-12-05T13:53:23.664Z,472.70
2022-12-05T13:56:14.691Z,462.33
2022-12-05T13:58:51.584Z,461.02
2022-12-05T14:01:27.787Z,461.63
2022-12-05T14:04:02.239Z,457.10
2022-12-05T14:06:34.791Z,447.23
2022-12-05T14:09:31.805Z,452.77
2022-12-05T14:12:10.643Z,445.90
2022-12-05T14:14:55.647Z,451.13
2022-12-05T14:17:29.380Z,464.50
2022-12-05T14:20:34.963Z,441.02
2022-12-05T14:23:24.105Z,445.48
2022-12-05T14:26:08.566Z,456.50
2022-12-05T14:28:52.070Z,440.52
2022-12-05T17:17:46.694Z,435.57
2022-12-05T17:20:13.868Z,433.63
2022-12-05T17:22:40.701Z,445.63
2022-12-05T17:25:23.015Z,439.57
2022-12-05T17:27:49.685Z,447.85
2022-12-05T17:30:16.496Z,434.95
2022-12-05T17:32:43.878Z,422.67
2022-12-05T17:35:14.975Z,430.87
2022-12-05T17:37:41.719Z,419.70
2022-12-05T17:40:08.975Z,430.45
2022-12-05T17:42:36.148Z,430.85
2022-12-05T17:45:03.192Z,418.50
2022-12-05T17:47:29.893Z,421.83
2022-12-05T17:49:56.747Z,418.70
2022-12-05T17:52:23.605Z,432.75
2022-12-05T17:54:50.601Z,423.17
2022-12-05T17:57:17.459Z,420.65
2022-12-05T17:59:44.029Z,419.65
2022-12-05T18:02:12.026Z,424.00
2022-12-05T18:04:38.651Z,424.95
2022-12-05T18:07:05.259Z,427.33
2022-12-05T18:09:31.877Z,433.42
2022-12-05T18:11:58.530Z,419.73
2022-12-05T18:14:27.468Z,420.63
2022-12-05T18:16:54.663Z,423.42
2022-12-05T18:19:21.292Z,421.63
2022-12-05T18:21:47.899Z,429.42
2022-12-05T18:24:14.637Z,415.38
2022-12-05T18:26:42.133Z,416.15
2022-12-05T18:29:08.651Z,410.83
2022-12-05T18:31:35.491Z,430.35
2022-12-05T18:34:02.113Z,432.80
2022-12-05T18:36:30.942Z,419.05
2022-12-05T18:38:57.999Z,426.70
2022-12-05T18:41:26.500Z,434.25
2022-12-05T18:43:53.306Z,432.67
2022-12-05T18:46:19.980Z,445.00
2022-12-05T18:48:48.038Z,430.05
2022-12-05T18:51:20.725Z,432.10
2022-12-05T18:53:53.021Z,443.55
2022-12-05T18:56:28.903Z,433.67
2022-12-05T18:59:04.694Z,437.55
2022-12-05T19:01:35.186Z,413.00
2022-12-05T19:04:03.993Z,414.25
2022-12-05T19:06:33.070Z,411.63
2022-12-05T19:09:09.033Z,406.13
2022-12-05T19:11:35.666Z,405.43
2022-12-05T19:14:04.272Z,410.85
2022-12-05T19:16:33.744Z,413.42
2022-12-05T19:19:02.978Z,433.75
2022-12-05T19:21:31.777Z,432.95
2022-12-05T19:23:59.006Z,434.67
2022-12-05T19:26:26.304Z,423.83
2022-12-05T19:28:53.223Z,426.27
2022-12-05T19:31:22.125Z,421.27
2022-12-05T19:33:53.076Z,420.98
2022-12-05T19:36:27.146Z,419.85
2022-12-05T19:38:54.925Z,420.30
2022-12-05T19:41:26.880Z,421.95
2022-12-05T19:43:54.428Z,415.20
2022-12-05T19:46:27.637Z,432.45
2022-12-05T19:48:56.408Z,424.83
2022-12-05T19:51:23.409Z,433.58
2022-12-05T19:53:50.373Z,440.67
2022-12-05T19:56:19.463Z,440.85
2022-12-05T19:58:46.996Z,442.52
2022-12-05T20:01:22.683Z,432.48
2022-12-05T20:03:55.627Z,430.13
2022-12-05T20:06:23.301Z,429.50
2022-12-05T20:08:52.489Z,434.10
2022-12-05T20:11:21.396Z,442.08
2022-12-05T20:13:48.655Z,454.50
2022-12-05T20:16:18.689Z,467.08
2022-12-05T20:18:46.075Z,466.40
2022-12-05T20:21:14.809Z,464.55
2022-12-05T20:23:42.127Z,465.90
2022-12-05T20:26:13.120Z,480.58
2022-12-05T20:28:40.446Z,473.98
2022-12-05T20:31:13.981Z,464.35
2022-12-05T20:33:43.426Z,465.92
2022-12-05T20:36:15.862Z,472.17
2022-12-05T20:38:43.283Z,473.13
2022-12-05T20:41:15.349Z,475.00
2022-12-05T20:43:43.421Z,478.70
2022-12-05T20:46:17.410Z,482.27
2022-12-05T20:48:45.046Z,475.48
2022-12-05T20:51:17.900Z,473.75
2022-12-05T20:53:45.318Z,473.58
2022-12-05T20:56:17.648Z,470.55
2022-12-05T20:58:47.162Z,476.23
2022-12-05T21:01:15.764Z,477.65
2022-12-05T21:03:44.976Z,488.53
2022-12-05T21:06:14.856Z,489.10
2022-12-05T21:08:41.932Z,481.05
2022-12-05T21:11:09.743Z,489.10
2022-12-05T21:13:36.685Z,484.37
2022-12-05T21:16:05.458Z,482.00
2022-12-05T21:18:32.628Z,481.02
2022-12-05T21:21:01.573Z,477.15
2022-12-05T21:23:28.304Z,473.17
2022-12-05T21:25:54.908Z,469.27
2022-12-05T21:28:21.640Z,475.58
2022-12-05T21:30:48.350Z,482.20
2022-12-05T21:33:14.991Z,468.75
2022-12-05T21:35:41.599Z,483.33
2022-12-05T21:38:08.472Z,488.73
2022-12-05T21:40:35.060Z,485.02
2022-12-05T21:43:01.766Z,489.25
2022-12-05T21:45:28.360Z,481.00
2022-12-05T21:47:55.063Z,487.73
2022-12-05T21:50:21.804Z,495.85
2022-12-05T21:52:48.465Z,500.98
2022-12-05T21:55:15.083Z,491.58
2022-12-05T21:57:41.711Z,491.65
2022-12-05T22:00:09.550Z,494.35
2022-12-05T22:02:36.285Z,479.88
2022-12-05T22:05:02.923Z,480.80
2022-12-05T22:07:29.561Z,480.13
2022-12-05T22:09:57.368Z,478.60
2022-12-05T22:12:24.237Z,618.05
2022-12-05T22:14:50.978Z,599.23
2022-12-05T22:17:17.684Z,603.55
2022-12-05T22:19:44.482Z,596.10
2022-12-05T22:22:11.081Z,598.70
2022-12-05T22:24:39.059Z,591.05
2022-12-05T22:27:05.768Z,612.47
2022-12-05T22:29:32.328Z,606.37
2022-12-05T22:31:58.909Z,595.85
2022-12-05T22:34:25.546Z,600.83
2022-12-05T22:36:52.234Z,595.75
2022-12-05T22:39:18.785Z,612.65
2022-12-05T22:41:45.389Z,605.55
2022-12-05T22:44:11.929Z,617.63
2022-12-05T22:46:38.738Z,617.35
2022-12-05T22:49:05.340Z,622.97
2022-12-05T22:51:32.677Z,626.00
2022-12-05T22:53:59.570Z,624.25
2022-12-05T22:56:27.930Z,628.50
2022-12-05T22:58:56.514Z,630.28
2022-12-05T23:01:32.166Z,623.25
2022-12-05T23:04:01.249Z,625.13
2022-12-05T23:06:29.203Z,613.80
2022-12-05T23:08:56.171Z,616.33
2022-12-05T23:11:23.763Z,613.20
2022-12-05T23:13:50.653Z,608.57
2022-12-05T23:16:23.661Z,612.58
2022-12-05T23:18:53.421Z,611.95
2022-12-05T23:21:21.749Z,614.53
2022-12-05T23:23:49.803Z,615.90
2022-12-05T23:26:18.053Z,608.95
2022-12-05T23:28:44.974Z,612.25
2022-12-05T23:31:12.448Z,612.65
2022-12-05T23:33:39.455Z,605.92
2022-12-05T23:36:07.419Z,607.30
2022-12-05T23:38:35.216Z,599.83
2022-12-05T23:41:04.746Z,605.05
2022-12-05T23:43:32.700Z,598.47
2022-12-05T23:45:59.735Z,598.45
2022-12-05T23:48:27.063Z,604.22
2022-12-05T23:51:06.126Z,613.00
2022-12-05T23:53:34.419Z,592.17
2022-12-05T23:56:03.169Z,612.70
2022-12-05T23:58:30.806Z,590.63
